YBCG/OOL METAR and TAF weather

Enter ICAO airport designator
Station Type Date Time Source
YBCG METAR 2018/12/10 13:00 UTC NOAA

YBCG 101300Z AUTO 25004KT 9999 // NCD 20/19 Q1016


Station Type Date Time Source
YBCG Decoded METAR 2018/12/10 13:00 UTC NOAA

Coolangatta Airport Aws, Australia (YBCG) 28-10S 153-30E 6M
Dec 10, 2018 - 08:00 AM EST / 2018.12.10 1300 UTC
Wind: from the WSW (250 degrees) at 5 MPH (4 KT):0
Visibility: greater than 7 mile(s):0
Temperature: 68 F (20 C)
Dew Point: 66 F (19 C)
Relative Humidity: 93%
Pressure (altimeter): 30.00 in. Hg (1016 hPa)
ob: YBCG 101300Z AUTO 25004KT 9999 // NCD 20/19 Q1016
cycle: 13

Station Type Date Time Source
YBCG TAF 2018/12/10 12:33 UTC NOAA

TAF YBCG 101120Z 1012/1112 01007KT 9999 FEW025
FM101400 VRB05KT 9999 SCT025
FM102200 04008KT 9999 FEW030
FM110100 07012KT 9999 FEW035
FM111100 VRB05KT 9999 SCT025


Example: see airport list